Aérodrome :
LOGIN :

S'inscrire | Disclaimer

   EN    FR    IT 

 










Légende :    VFR   VFR Marginal   IFR   IFR Intensif   IFR Très Intensif
Visi : 
Plafond : 
>= 8 km
>= 3000ft
5 à 8 km
1000 à 3000 ft
1500m à 5 km
500 à 1000 ft
800 à 1500m
200 à 500 ft
< 800m
< 200 ft
Symboles :   Orages  Brouillard  Fortes neiges  Fortes précipitations  Vent > 20 kt
SIGMETs :   Divers  Orages  Givrage  Turbulence  Onde Orograph.  Cendres Volcan.







- Altitude de l'aérodrome : 171 ft
- Code IATA : EGC
- Voir les cartes d'approche


LFBE - Bergerac

DERNIER METAR :
  • 131530Z AUTO 03005KT CAVOK 16/10 Q1028 NOSIG

METARs EXPIRÉS :
  • 131500Z AUTO 02005KT 9999 FEW026 SCT062 16/11 Q1028 NOSIG
  • 131430Z AUTO 36006KT 320V020 9999 SCT026 16/10 Q1028 NOSIG
  • 131400Z AUTO 35004KT 320V050 9999 BKN028 16/11 Q1028 NOSIG
  • 131330Z AUTO VRB04KT 9999 BKN024 17/10 Q1028 NOSIG
  • 131300Z AUTO 36004KT 320V060 9999 FEW022 16/10 Q1028 NOSIG

TAF TAF LFBE
Valide du 13 à 12h jusqu'au 14 à 12h UTC


131100Z 1312/1412 VRB03KT 9999 BKN015
BECMG 1312/1314 CAVOK
TEMPO 1320/1409 4000 BR
PROB30
TEMPO 1400/1406 0400 FG VV///
Pas de NOTAMs connus pour ce terrain.



MET'MAP, la Météo Aéronautique d'un coup d'oeil ! - Copyright ORBIFLY Décembre 2007 - Disclaimer

ORBIFLY MET'MAP TEAM :

Programmation & Développement : Alexandra Zaïnal
Conception & Développement : Baudouin d'Aumeries
Co-Programmation & Développement : Marc-Olivier Méhu
Soutien technique & logistique : Manuel Goepfert

Contact : metmap@orbifly.com




SOURCES & CREDITS :

   NOAA